Bishop Auckland, United Kingdom
Current Conditions -  °F | °C
As of 9:50 PM on Tuesday 27 Jan 2015 (Local Time) from EGNV Reporting Station
Scattered Clouds Scattered Clouds  
Wind Chill: 38°   Ceiling: Unl
Heat Index: 45°   Visibility: 6mi
Dew Point: 36°   Wind: 15mph
Humidity: 71%   Direction: 230°SW
Pressure: 29.94"   Gusts: NA
Location:  54.66°N, 1.68°W
Report Text: EGNV 272150Z 23013KT 190V260 9999 FEW021 SCT023 07/02 Q1014
Loading
Personal Weather Stations






























Interactive Weather Map New forecast layout! Learn more

10-Day Weather Forecast

Advertisements
Track Severe Weather on mobile